• Join FlightAware (Why Join?)
  • Login
  • US Flag 
12:29AM EDT


 

Airport Tracker/Info


-or-


 

Live Flight TrackerFlight Track Log ✈ AWE3997 ✈ 11-May-2013 ✈ KCLT - KRIC

Flight Track Log - Related Links

Times and Time Zones

All times are in EDT time to prevent confusion due to time zone crossing. See the AWE3997 flight status page for this flight to view local times or setup timezone preferences in your user account.

Time Position Orientation Groundspeed Altitude Reporting Facility
EDT Latitude Longitude Course Direction KTS MPH feet Rate Location/Type
02:32PM 35.1908 -80.9331 72° East 167 192 1,400  Level Atlanta Center
02:33PM 35.1572 -80.9319 178° South 191 220 2,300 1,680 Climbing Atlanta Center
02:34PM 35.1213 -80.6191 29° Northeast  Level FlightAware Approximate
02:34PM 35.1058 -80.8728 137° Southeast 275 316 4,300  Level Atlanta Center
02:35PM 35.2208 -80.5518 30° Northeast  Level FlightAware Approximate
02:35PM 35.1319 -80.7600 74° East 329 379 7,400  Level Atlanta Center
02:36PM 35.3167 -80.4801 90° East  Level FlightAware Approximate
02:36PM 35.1756 -80.6694 59° Northeast 329 379 9,900  Level Atlanta Center
02:37PM 35.3599 -80.3663 72° East  Level FlightAware Approximate
02:37PM 35.2250 -80.5733 58° Northeast 327 376 11,200  Level Atlanta Center
02:38PM 35.2783 -80.4669 58° Northeast 354 407 12,800 1,500 Climbing Atlanta Center
02:39PM 35.3372 -80.3447 59° Northeast 363 418 14,200 1,260 Climbing Atlanta Center
02:40PM 35.4286 -80.1522 60° Northeast 396 456 16,100 1,140 Climbing Washington Center
02:41PM 35.4669 -80.0167 71° East 410 472 17,300 1,320 Climbing Washington Center
02:42PM 35.4967 -79.8933 73° East 410 472 18,800 1,320 Climbing Washington Center
02:43PM 35.5328 -79.7550 72° East 416 479 20,000 1,080 Climbing Washington Center
02:45PM 35.5667 -79.6164 73° East 416 479 21,000 480 Climbing Washington Center
02:46PM 35.6097 -79.4550 72° East 432 497 21,000  Level Washington Center
02:46PM 35.6528 -79.3419 65° Northeast 427 491 21,000  Level Washington Center
02:47PM 35.7028 -79.2164 64° Northeast 414 476 21,000  Level Washington Center
02:48PM 35.7522 -79.0933 64° Northeast 400 460 21,000  Level Washington Center
02:50PM 35.8017 -78.9725 63° Northeast 394 453 21,000  Level Washington Center
02:50PM 35.8489 -78.8464 65° Northeast 399 459 21,000  Level Washington Center
02:52PM 35.9206 -78.7467 48° Northeast 388 447 21,000  Level Washington Center
02:52PM 36.0081 -78.6656 37° Northeast 382 440 21,000  Level Washington Center
02:53PM 36.1022 -78.5742 38° Northeast 382 440 21,000  Level Washington Center
02:54PM 36.1919 -78.4925 36° Northeast 393 452 21,000  Level Washington Center
02:55PM 36.2814 -78.4108 36° Northeast 400 460 21,000 -360 Level Washington Center
02:56PM 36.3711 -78.3289 36° Northeast 400 460 20,300 -1,200 Descending Washington Center
02:57PM 36.4628 -78.2417 37° Northeast 400 460 18,700 -1,620 Descending Washington Center
02:58PM 36.5586 -78.1544 36° Northeast 405 466 17,100 -1,500 Descending Washington Center
02:59PM 36.6394 -78.0717 39° Northeast 412 474 15,700 -1,440 Descending Washington Center
03:01PM 36.7308 -77.9867 37° Northeast 412 474 14,200 -1,560 Descending Washington Center
03:01PM 36.8181 -77.9061 36° Northeast 405 466 12,700 -1,560 Descending Washington Center
03:02PM 36.9092 -77.8283 34° Northeast 400 460 11,200 -1,380 Descending Washington Center
03:04PM 36.9942 -77.7528 35° Northeast 387 445 10,000 -600 Descending Washington Center
03:04PM 37.0786 -77.6850 33° Northeast 374 430 10,000 -60 Level Washington Center
03:05PM 37.1592 -77.6194 33° Northeast 361 415 9,900 -1,080 Descending Washington Center
03:07PM 37.2389 -77.5903 16° North 320 368 7,900 -1,860 Descending Washington Center
03:07PM 37.3206 -77.5636 15° North 307 353 6,300 -1,620 Descending Washington Center
03:08PM 37.3983 -77.5394 14° North 295 339 4,800 -1,500 Descending Washington Center
03:09PM 37.4717 -77.5072 19° North 289 333 3,300 -900 Descending Washington Center
03:10PM 37.5292 -77.4406 43° Northeast 270 311 3,000 -420 Descending Washington Center
03:11PM 37.5719 -77.3708 52° Northeast 256 295 2,500 -540 Descending Washington Center